Clarksville, Missouri
Current Conditions -  °F | °C
As of 3:55 AM on Sunday 21 Dec 2014 (Local Time) from KPPQ Reporting Station
Overcast Overcast  
Wind Chill: 35°   Ceiling: 2300
Heat Index: 38°   Visibility: 7mi
Dew Point: 35°   Wind: 5mph
Humidity: 88%   Direction: 150°SSE
Pressure: 30.19"   Gusts: NA
Location:  39.37°N, 90.91°W
Report Text: KPPQ 210955Z AUTO 15004KT 7SM OVC023 03/02 A3019 RMK AO2 T00340016
Loading
Personal Weather Stations






























Interactive Weather Map New forecast layout! Learn more

10-Day Weather Forecast

Advertisements
Track Severe Weather on mobile